Time;durP1;ratioP1;P1;durP2;ratioP2;P2;SDS_P1;SDS_P2;PMS_P1;PMS_P2;Temp;Humidity;BMP_temperature;BMP_pressure;BME280_temperature;BME280_humidity;BME280_pressure;Samples;Min_cycle;Max_cycle;Signal;HPM_P1;HPM_P2
2024/01/02 00:01:34;;;;;;;;;;;5.40;99.90;;;;;;5061448;28;19942;-59
2024/01/02 00:04:00;;;;;;;;;;;5.50;99.90;;;;;;5069340;28;19923;-60
2024/01/02 00:06:25;;;;;;;;;;;5.50;99.90;;;;;;5068104;27;19935;-58
2024/01/02 00:08:51;;;;;;;;;;;5.50;99.90;;;;;;5062848;27;19928;-59
2024/01/02 00:11:16;;;;;;;;;;;5.50;99.90;;;;;;5070247;27;19928;-58
2024/01/02 00:13:42;;;;;;;;;;;5.50;99.90;;;;;;5072688;27;19931;-59
2024/01/02 00:16:07;;;;;;;;;;;5.50;99.90;;;;;;5065318;27;19978;-59
2024/01/02 00:18:33;;;;;;;;;;;5.50;99.90;;;;;;5073566;27;20566;-59
2024/01/02 00:20:59;;;;;;;;;;;5.50;99.90;;;;;;5053561;28;20066;-59
2024/01/02 00:23:25;;;;;;;;;;;5.50;99.90;;;;;;5065246;27;20048;-57
2024/01/02 00:25:50;;;;;;;;;;;5.50;99.90;;;;;;5065439;27;19927;-58
2024/01/02 00:28:17;;;;;;;;;;;5.50;99.90;;;;;;5068180;27;19931;-59
2024/01/02 00:30:43;;;;;;;;;;;5.50;99.90;;;;;;5063022;28;19943;-60
2024/01/02 00:33:09;;;;;;;;;;;5.50;99.90;;;;;;5065764;27;20399;-59
2024/01/02 00:35:34;;;;;;;;;;;5.50;99.90;;;;;;5072305;28;20006;-59
2024/01/02 00:38:00;;;;;;;;;;;5.50;99.90;;;;;;5039111;28;19927;-58
2024/01/02 00:40:26;;;;;;;;;;;5.50;99.90;;;;;;5056565;27;19950;-59
2024/01/02 00:42:51;;;;;;;;;;;5.50;99.90;;;;;;5070806;27;20009;-59
2024/01/02 00:45:17;;;;;;;;;;;5.50;99.90;;;;;;5077125;28;21537;-59
2024/01/02 00:47:43;;;;;;;;;;;5.50;99.90;;;;;;5072791;28;20548;-59
2024/01/02 00:50:08;;;;;;;;;;;5.50;99.90;;;;;;5069185;28;19982;-59
2024/01/02 00:52:34;;;;;;;;;;;5.50;99.90;;;;;;5063932;28;20568;-58
2024/01/02 00:55:01;;;;;;;;;;;5.50;99.90;;;;;;5068738;27;19946;-57
2024/01/02 00:57:26;;;;;;;;;;;5.40;99.90;;;;;;5066231;28;19927;-58
2024/01/02 00:59:52;;;;;;;;;;;5.50;99.90;;;;;;5068413;28;19935;-59
2024/01/02 01:02:17;;;;;;;;;;;5.50;99.90;;;;;;5072414;28;19931;-58
2024/01/02 01:04:43;;;;;;;;;;;5.50;99.90;;;;;;5072816;28;19928;-58
2024/01/02 01:07:09;;;;;;;;;;;5.60;99.90;;;;;;5079095;28;20386;-60
2024/01/02 01:09:35;;;;;;;;;;;5.50;99.90;;;;;;5080448;28;20597;-57
2024/01/02 01:12:02;;;;;;;;;;;5.60;99.90;;;;;;5081943;28;19927;-59
2024/01/02 01:14:27;;;;;;;;;;;5.60;99.90;;;;;;5075583;28;20193;-59
2024/01/02 01:16:53;;;;;;;;;;;5.60;99.90;;;;;;5074057;28;19920;-58
2024/01/02 01:19:18;;;;;;;;;;;5.60;99.90;;;;;;5077198;28;20445;-58
2024/01/02 01:21:44;;;;;;;;;;;5.60;99.90;;;;;;5077689;28;19989;-58
2024/01/02 01:24:09;;;;;;;;;;;5.60;99.90;;;;;;5073789;28;19930;-59
2024/01/02 01:26:35;;;;;;;;;;;5.60;99.90;;;;;;5081613;28;20012;-60
2024/01/02 01:29:02;;;;;;;;;;;5.60;99.90;;;;;;5070821;28;19928;-59
2024/01/02 01:31:27;;;;;;;;;;;5.70;99.90;;;;;;5064045;28;19961;-58
2024/01/02 01:33:53;;;;;;;;;;;5.70;99.90;;;;;;5070887;28;20374;-60
2024/01/02 01:36:18;;;;;;;;;;;5.70;99.90;;;;;;5073190;28;19981;-58
2024/01/02 01:38:44;;;;;;;;;;;5.70;99.90;;;;;;5067814;28;19939;-59
2024/01/02 01:41:09;;;;;;;;;;;5.70;99.90;;;;;;5071688;28;19931;-59
2024/01/02 01:43:35;;;;;;;;;;;5.70;99.90;;;;;;5043555;28;19994;-59
2024/01/02 01:46:01;;;;;;;;;;;5.70;99.90;;;;;;5074129;28;19991;-59
2024/01/02 01:48:27;;;;;;;;;;;5.70;99.90;;;;;;5068553;28;20353;-58
2024/01/02 01:50:53;;;;;;;;;;;5.80;99.90;;;;;;5046181;28;19927;-59
2024/01/02 01:53:18;;;;;;;;;;;5.80;99.90;;;;;;5066641;28;19950;-58
2024/01/02 01:55:44;;;;;;;;;;;5.80;99.90;;;;;;5068262;28;19972;-60
2024/01/02 01:58:10;;;;;;;;;;;5.80;99.90;;;;;;5067899;28;20367;-59
2024/01/02 02:00:36;;;;;;;;;;;5.80;99.90;;;;;;5069969;28;19932;-58
2024/01/02 02:03:01;;;;;;;;;;;5.80;99.90;;;;;;5066047;27;20032;-59
2024/01/02 02:05:28;;;;;;;;;;;5.80;99.90;;;;;;5070022;27;20006;-59
2024/01/02 02:07:54;;;;;;;;;;;5.80;99.90;;;;;;5072222;27;20652;-59
2024/01/02 02:10:20;;;;;;;;;;;5.90;99.90;;;;;;5067374;27;20058;-58
2024/01/02 02:12:46;;;;;;;;;;;5.80;99.90;;;;;;5076196;27;20948;-60
2024/01/02 02:15:12;;;;;;;;;;;5.80;99.90;;;;;;5069798;28;19928;-59
2024/01/02 02:17:37;;;;;;;;;;;5.90;99.90;;;;;;5070066;28;20009;-60
2024/01/02 02:20:03;;;;;;;;;;;5.90;99.90;;;;;;5072032;27;20004;-59
2024/01/02 02:22:36;;;;;;;;;;;5.90;99.90;;;;;;5078441;27;20022;-59
2024/01/02 02:25:03;;;;;;;;;;;5.90;99.90;;;;;;5072961;27;19949;-59
2024/01/02 02:27:28;;;;;;;;;;;5.90;99.90;;;;;;5072758;27;19928;-60
2024/01/02 02:29:54;;;;;;;;;;;5.90;99.90;;;;;;5067609;27;19980;-59
2024/01/02 02:32:20;;;;;;;;;;;5.90;99.90;;;;;;5073608;27;19928;-59
2024/01/02 02:34:45;;;;;;;;;;;5.90;99.90;;;;;;5069717;27;19924;-59
2024/01/02 02:37:11;;;;;;;;;;;6.00;99.90;;;;;;5074739;27;20541;-59
2024/01/02 02:39:37;;;;;;;;;;;6.00;99.90;;;;;;5073047;27;20446;-59
2024/01/02 02:42:02;;;;;;;;;;;6.00;99.90;;;;;;5072245;28;20423;-59
2024/01/02 02:44:28;;;;;;;;;;;6.00;99.90;;;;;;5080718;27;19934;-59
2024/01/02 02:46:54;;;;;;;;;;;6.00;99.90;;;;;;5076943;27;19927;-60
2024/01/02 02:49:19;;;;;;;;;;;6.10;99.90;;;;;;5075467;27;19930;-59
2024/01/02 02:51:45;;;;;;;;;;;6.10;99.90;;;;;;5071764;27;19939;-59
2024/01/02 02:54:10;;;;;;;;;;;6.10;99.90;;;;;;5074207;27;20876;-60
2024/01/02 02:56:36;;;;;;;;;;;6.10;99.90;;;;;;5072418;27;19923;-61
2024/01/02 02:59:02;;;;;;;;;;;6.10;99.90;;;;;;5069658;28;20226;-59
2024/01/02 03:01:28;;;;;;;;;;;6.20;99.90;;;;;;5061262;27;19932;-59
2024/01/02 03:03:54;;;;;;;;;;;6.10;99.90;;;;;;5060521;28;20013;-59
2024/01/02 03:06:20;;;;;;;;;;;6.20;99.90;;;;;;5069679;27;19928;-60
2024/01/02 03:08:45;;;;;;;;;;;6.20;99.90;;;;;;5068564;28;19955;-59
2024/01/02 03:11:11;;;;;;;;;;;6.20;99.90;;;;;;5070367;27;19928;-59
2024/01/02 03:13:36;;;;;;;;;;;6.20;99.90;;;;;;5071122;27;20404;-60
2024/01/02 03:16:02;;;;;;;;;;;6.20;99.90;;;;;;5067711;27;19988;-60
2024/01/02 03:18:28;;;;;;;;;;;6.20;99.90;;;;;;5070592;27;19928;-59
2024/01/02 03:20:53;;;;;;;;;;;6.20;99.90;;;;;;5067547;27;19931;-58
2024/01/02 03:23:19;;;;;;;;;;;6.20;99.90;;;;;;5073069;27;19928;-60
2024/01/02 03:25:44;;;;;;;;;;;6.20;99.90;;;;;;5054048;27;19931;-60
2024/01/02 03:28:10;;;;;;;;;;;6.20;99.90;;;;;;5079675;27;19930;-60
2024/01/02 03:30:39;;;;;;;;;;;6.20;99.90;;;;;;5069433;27;20014;-59
2024/01/02 03:33:04;;;;;;;;;;;6.20;99.90;;;;;;5065837;27;19928;-59
2024/01/02 03:35:30;;;;;;;;;;;6.20;99.90;;;;;;5070238;27;19931;-60
2024/01/02 03:37:55;;;;;;;;;;;6.20;99.90;;;;;;5067688;27;20428;-58
2024/01/02 03:40:21;;;;;;;;;;;6.30;99.90;;;;;;5077787;27;19931;-59
2024/01/02 03:42:46;;;;;;;;;;;6.30;99.90;;;;;;5076682;27;20203;-60
2024/01/02 03:45:12;;;;;;;;;;;6.30;99.90;;;;;;5072730;28;19928;-59
2024/01/02 03:47:37;;;;;;;;;;;6.30;99.90;;;;;;5070491;27;19935;-60
2024/01/02 03:50:03;;;;;;;;;;;6.30;99.90;;;;;;5069432;28;19932;-59
2024/01/02 03:52:29;;;;;;;;;;;6.20;99.90;;;;;;5071745;27;19975;-59
2024/01/02 03:54:54;;;;;;;;;;;6.20;99.90;;;;;;5072697;28;19977;-59
2024/01/02 03:57:20;;;;;;;;;;;6.20;99.90;;;;;;5069353;28;19980;-59
2024/01/02 03:59:45;;;;;;;;;;;6.20;99.90;;;;;;5070694;27;20089;-60
2024/01/02 04:02:11;;;;;;;;;;;6.20;99.90;;;;;;5060571;27;19928;-60
2024/01/02 04:04:37;;;;;;;;;;;6.20;99.90;;;;;;5070577;27;19924;-59
2024/01/02 04:07:03;;;;;;;;;;;6.20;99.90;;;;;;5071151;28;19930;-60
2024/01/02 04:09:28;;;;;;;;;;;6.20;99.90;;;;;;5067873;27;19927;-59
2024/01/02 04:11:54;;;;;;;;;;;6.20;99.90;;;;;;5065070;28;19966;-59
2024/01/02 04:14:19;;;;;;;;;;;6.20;99.90;;;;;;5072110;28;19927;-60
2024/01/02 04:16:45;;;;;;;;;;;6.20;99.90;;;;;;5069368;27;21559;-59
2024/01/02 04:19:11;;;;;;;;;;;6.20;99.90;;;;;;5072661;27;20000;-60
2024/01/02 04:21:36;;;;;;;;;;;6.20;99.90;;;;;;5060949;27;20022;-60
2024/01/02 04:24:02;;;;;;;;;;;6.20;99.90;;;;;;5068660;28;20404;-60
2024/01/02 04:26:28;;;;;;;;;;;6.20;99.90;;;;;;5073522;28;19938;-59
2024/01/02 04:28:53;;;;;;;;;;;6.20;99.90;;;;;;5076797;28;19957;-60
2024/01/02 04:31:19;;;;;;;;;;;6.20;99.90;;;;;;5081460;28;20283;-60
2024/01/02 04:33:44;;;;;;;;;;;6.20;99.90;;;;;;5083315;28;19969;-60
2024/01/02 04:36:10;;;;;;;;;;;6.20;99.90;;;;;;5087923;28;20014;-59
2024/01/02 04:38:36;;;;;;;;;;;6.20;99.90;;;;;;5085689;27;20268;-58
2024/01/02 04:41:02;;;;;;;;;;;6.20;99.90;;;;;;5084817;27;20405;-60
2024/01/02 04:43:28;;;;;;;;;;;6.20;99.90;;;;;;5085692;28;19932;-59
2024/01/02 04:45:54;;;;;;;;;;;6.20;99.90;;;;;;5083000;28;19924;-60
2024/01/02 04:48:20;;;;;;;;;;;6.20;99.90;;;;;;5086435;28;19928;-59
2024/01/02 04:50:46;;;;;;;;;;;6.20;99.90;;;;;;5088475;27;20317;-59
2024/01/02 04:53:11;;;;;;;;;;;6.20;99.90;;;;;;5081708;28;26744;-60
2024/01/02 04:55:37;;;;;;;;;;;6.20;99.90;;;;;;5085789;28;19928;-59
2024/01/02 04:58:04;;;;;;;;;;;6.20;99.90;;;;;;5083046;28;19931;-58
2024/01/02 05:00:30;;;;;;;;;;;6.20;99.90;;;;;;5080185;28;19978;-58
2024/01/02 05:02:57;;;;;;;;;;;6.20;99.90;;;;;;5068441;28;20010;-59
2024/01/02 05:05:22;;;;;;;;;;;6.20;99.90;;;;;;5065227;28;20441;-59
2024/01/02 05:07:48;;;;;;;;;;;6.20;99.90;;;;;;5068433;28;20596;-59
2024/01/02 05:10:13;;;;;;;;;;;6.20;99.90;;;;;;5067773;28;20038;-59
2024/01/02 05:12:39;;;;;;;;;;;6.20;99.90;;;;;;5073827;28;19938;-60
2024/01/02 05:15:05;;;;;;;;;;;6.30;99.90;;;;;;5064013;28;19970;-59
2024/01/02 05:17:30;;;;;;;;;;;6.30;99.90;;;;;;5067063;28;20389;-59
2024/01/02 05:19:56;;;;;;;;;;;6.30;99.90;;;;;;5065888;28;19986;-58
2024/01/02 05:22:21;;;;;;;;;;;6.30;99.90;;;;;;5051920;28;19936;-58
2024/01/02 05:24:47;;;;;;;;;;;6.30;99.90;;;;;;5062051;28;21246;-60
2024/01/02 05:27:14;;;;;;;;;;;6.30;99.90;;;;;;5065623;28;20363;-59
2024/01/02 05:29:40;;;;;;;;;;;6.30;99.90;;;;;;5080970;28;19920;-59
2024/01/02 05:32:05;;;;;;;;;;;6.30;99.90;;;;;;5075364;28;19928;-60
2024/01/02 05:34:31;;;;;;;;;;;6.30;99.90;;;;;;5073488;28;19946;-59
2024/01/02 05:36:56;;;;;;;;;;;6.30;99.90;;;;;;5069094;27;19975;-59
2024/01/02 05:39:22;;;;;;;;;;;6.30;99.90;;;;;;5072411;27;20442;-59
2024/01/02 05:41:48;;;;;;;;;;;6.30;99.90;;;;;;5068870;27;19931;-59
2024/01/02 05:44:13;;;;;;;;;;;6.30;99.90;;;;;;5073706;27;21991;-60
2024/01/02 05:46:39;;;;;;;;;;;6.30;99.90;;;;;;5074131;28;19941;-59
2024/01/02 05:49:04;;;;;;;;;;;6.30;99.90;;;;;;5072202;27;21229;-60
2024/01/02 05:51:30;;;;;;;;;;;6.30;99.90;;;;;;5072399;27;19928;-60
2024/01/02 05:53:55;;;;;;;;;;;6.30;99.90;;;;;;5072650;27;22461;-59
2024/01/02 05:56:22;;;;;;;;;;;6.30;99.90;;;;;;5072998;27;19924;-59
2024/01/02 05:58:47;;;;;;;;;;;6.30;99.90;;;;;;5073970;27;19932;-59
2024/01/02 06:01:13;;;;;;;;;;;6.30;99.90;;;;;;5074341;27;19931;-60
2024/01/02 06:03:38;;;;;;;;;;;6.30;99.90;;;;;;5073301;27;19980;-58
2024/01/02 06:06:05;;;;;;;;;;;6.30;99.90;;;;;;5073121;28;21857;-59
2024/01/02 06:08:30;;;;;;;;;;;6.30;99.90;;;;;;5079580;27;20431;-59
2024/01/02 06:10:56;;;;;;;;;;;6.30;99.90;;;;;;5074542;27;20027;-58
2024/01/02 06:13:22;;;;;;;;;;;6.30;99.90;;;;;;5076960;27;19928;-60
2024/01/02 06:15:47;;;;;;;;;;;6.30;99.90;;;;;;5076641;27;20015;-61
2024/01/02 06:18:13;;;;;;;;;;;6.30;99.90;;;;;;5071095;27;20440;-60
2024/01/02 06:20:38;;;;;;;;;;;6.30;99.90;;;;;;5074303;27;19932;-60
2024/01/02 06:23:04;;;;;;;;;;;6.30;99.90;;;;;;5068175;28;19931;-59
2024/01/02 06:25:29;;;;;;;;;;;6.30;99.90;;;;;;5075128;27;19975;-58
2024/01/02 06:27:55;;;;;;;;;;;6.30;99.90;;;;;;5072654;27;19927;-58
2024/01/02 06:30:22;;;;;;;;;;;6.30;99.90;;;;;;5074850;27;19930;-60
2024/01/02 06:32:48;;;;;;;;;;;6.30;99.90;;;;;;5074726;27;19920;-59
2024/01/02 06:35:13;;;;;;;;;;;6.30;99.90;;;;;;5076291;27;19941;-59
2024/01/02 06:37:39;;;;;;;;;;;6.30;99.90;;;;;;5084520;28;19931;-59
2024/01/02 06:40:06;;;;;;;;;;;6.30;99.90;;;;;;5082690;27;20003;-59
2024/01/02 06:42:31;;;;;;;;;;;6.30;99.90;;;;;;5061849;28;20044;-60
2024/01/02 06:44:57;;;;;;;;;;;6.30;99.90;;;;;;5074047;27;20549;-59
2024/01/02 06:47:22;;;;;;;;;;;6.40;99.90;;;;;;5071783;27;20022;-59
2024/01/02 06:49:48;;;;;;;;;;;6.40;99.90;;;;;;5075601;27;19932;-59
2024/01/02 06:52:14;;;;;;;;;;;6.40;99.90;;;;;;5072327;28;19924;-60
2024/01/02 06:54:39;;;;;;;;;;;6.40;99.90;;;;;;5071573;27;19927;-59
2024/01/02 06:57:05;;;;;;;;;;;6.40;99.90;;;;;;5051566;27;20036;-59
2024/01/02 06:59:30;;;;;;;;;;;6.40;99.90;;;;;;5066446;28;19924;-60
2024/01/02 07:01:56;;;;;;;;;;;6.40;99.90;;;;;;5068824;27;20280;-59
2024/01/02 07:04:22;;;;;;;;;;;6.40;99.90;;;;;;5069734;28;19928;-59
2024/01/02 07:06:47;;;;;;;;;;;6.40;99.90;;;;;;5073462;27;20855;-59
2024/01/02 07:09:14;;;;;;;;;;;6.40;99.90;;;;;;5070394;28;19928;-59
2024/01/02 07:11:39;;;;;;;;;;;6.40;99.90;;;;;;5073177;27;20072;-59
2024/01/02 07:14:05;;;;;;;;;;;6.40;99.90;;;;;;5062268;27;19944;-59
2024/01/02 07:16:32;;;;;;;;;;;6.40;99.90;;;;;;5070161;27;21303;-59
2024/01/02 07:18:57;;;;;;;;;;;6.40;99.90;;;;;;5056901;28;19924;-59
2024/01/02 07:21:23;;;;;;;;;;;6.40;99.90;;;;;;5073482;27;20051;-60
2024/01/02 07:23:48;;;;;;;;;;;6.40;99.90;;;;;;5070088;27;19938;-59
2024/01/02 07:26:14;;;;;;;;;;;6.40;99.90;;;;;;5069573;27;19938;-59
2024/01/02 07:28:40;;;;;;;;;;;6.40;99.90;;;;;;5073819;27;19935;-60
2024/01/02 07:31:05;;;;;;;;;;;6.40;99.90;;;;;;5071181;27;21052;-59
2024/01/02 07:33:31;;;;;;;;;;;6.40;99.90;;;;;;5070428;27;19933;-60
2024/01/02 07:35:56;;;;;;;;;;;6.40;99.90;;;;;;5068347;27;19926;-60
2024/01/02 07:38:26;;;;;;;;;;;6.40;99.90;;;;;;5072214;27;19923;-60
2024/01/02 07:40:54;;;;;;;;;;;6.40;99.90;;;;;;5072852;27;19932;-59
2024/01/02 07:43:21;;;;;;;;;;;6.40;99.90;;;;;;5068783;28;20715;-57
2024/01/02 07:45:46;;;;;;;;;;;6.40;99.90;;;;;;5076136;27;19927;-60
2024/01/02 07:48:12;;;;;;;;;;;6.50;99.90;;;;;;5067712;28;19951;-60
2024/01/02 07:50:37;;;;;;;;;;;6.50;99.90;;;;;;5075307;28;19989;-60
2024/01/02 07:53:03;;;;;;;;;;;6.50;99.90;;;;;;5070761;27;19977;-59
2024/01/02 07:55:29;;;;;;;;;;;6.60;99.90;;;;;;5074519;27;19928;-60
2024/01/02 07:57:54;;;;;;;;;;;6.60;99.90;;;;;;5064417;27;20327;-59
2024/01/02 08:00:20;;;;;;;;;;;6.60;99.90;;;;;;5066269;28;20022;-59
2024/01/02 08:02:45;;;;;;;;;;;6.60;99.90;;;;;;5051758;28;19932;-60
2024/01/02 08:05:11;;;;;;;;;;;6.70;99.90;;;;;;5070730;27;19930;-60
2024/01/02 08:07:37;;;;;;;;;;;6.70;99.90;;;;;;5075289;27;20410;-58
2024/01/02 08:10:03;;;;;;;;;;;6.70;99.90;;;;;;5070494;28;20019;-60
2024/01/02 08:12:29;;;;;;;;;;;6.80;99.90;;;;;;5068273;27;19934;-58
2024/01/02 08:14:54;;;;;;;;;;;6.80;99.90;;;;;;5062632;27;20603;-59
2024/01/02 08:17:23;;;;;;;;;;;6.80;99.90;;;;;;5071910;27;20247;-60
2024/01/02 08:19:50;;;;;;;;;;;6.90;99.90;;;;;;5076630;27;19924;-60
2024/01/02 08:22:15;;;;;;;;;;;6.90;99.90;;;;;;5083193;27;19955;-58
2024/01/02 08:24:41;;;;;;;;;;;6.90;99.90;;;;;;5085801;27;19963;-60
2024/01/02 08:27:07;;;;;;;;;;;7.00;99.90;;;;;;5081083;27;19920;-60
2024/01/02 08:29:32;;;;;;;;;;;7.10;99.90;;;;;;5078614;27;20432;-58
2024/01/02 08:31:58;;;;;;;;;;;7.00;99.90;;;;;;5090788;27;19928;-59
2024/01/02 08:34:23;;;;;;;;;;;7.10;99.90;;;;;;5066395;27;20393;-60
2024/01/02 08:36:49;;;;;;;;;;;7.10;99.90;;;;;;5084134;28;19920;-58
2024/01/02 08:39:14;;;;;;;;;;;7.10;99.90;;;;;;5090524;27;19923;-60
2024/01/02 08:41:40;;;;;;;;;;;7.20;99.90;;;;;;5079710;27;19928;-58
2024/01/02 08:44:05;;;;;;;;;;;7.20;99.90;;;;;;5076624;28;19924;-58
2024/01/02 08:46:31;;;;;;;;;;;7.30;99.90;;;;;;5080807;28;19920;-61
2024/01/02 08:48:57;;;;;;;;;;;7.30;99.90;;;;;;5079896;28;19928;-60
2024/01/02 08:51:22;;;;;;;;;;;7.40;99.90;;;;;;5066481;28;19920;-59
2024/01/02 08:53:48;;;;;;;;;;;7.50;99.90;;;;;;5078839;28;20413;-60
2024/01/02 08:56:13;;;;;;;;;;;7.60;99.90;;;;;;5076804;28;19934;-59
2024/01/02 08:58:41;;;;;;;;;;;7.60;99.90;;;;;;5073059;28;20057;-60
2024/01/02 09:01:10;;;;;;;;;;;7.70;99.90;;;;;;5067557;28;19932;-60
2024/01/02 09:03:36;;;;;;;;;;;7.80;99.90;;;;;;5073161;28;19970;-61
2024/01/02 09:06:01;;;;;;;;;;;7.90;99.90;;;;;;5073561;28;19927;-60
2024/01/02 09:08:27;;;;;;;;;;;8.00;99.90;;;;;;5080096;27;19931;-61
2024/01/02 09:10:52;;;;;;;;;;;8.10;99.90;;;;;;5075215;28;20378;-61
2024/01/02 09:13:19;;;;;;;;;;;8.20;99.90;;;;;;5071711;28;19935;-60
2024/01/02 09:15:45;;;;;;;;;;;8.20;99.90;;;;;;5075053;27;20093;-60
2024/01/02 09:18:10;;;;;;;;;;;8.30;99.90;;;;;;5075833;27;19927;-61
2024/01/02 09:20:36;;;;;;;;;;;8.40;99.90;;;;;;5076131;27;20022;-59
2024/01/02 09:23:02;;;;;;;;;;;8.40;99.90;;;;;;5064105;28;20268;-61
2024/01/02 09:25:29;;;;;;;;;;;8.50;99.90;;;;;;5079640;27;20262;-59
2024/01/02 09:27:58;;;;;;;;;;;8.50;99.90;;;;;;5076798;27;19957;-60
2024/01/02 09:30:23;;;;;;;;;;;8.60;99.90;;;;;;5073052;28;20316;-60
2024/01/02 09:32:49;;;;;;;;;;;8.70;99.90;;;;;;5077474;27;20037;-59
2024/01/02 09:35:15;;;;;;;;;;;8.70;99.90;;;;;;5067592;27;19924;-60
2024/01/02 09:37:41;;;;;;;;;;;8.80;99.90;;;;;;5069230;27;19928;-59
2024/01/02 09:40:27;;;;;;;;;;;8.80;99.90;;;;;;5076152;27;19979;-59
2024/01/02 09:43:04;;;;;;;;;;;8.90;99.90;;;;;;5039575;27;19970;-60
2024/01/02 09:45:39;;;;;;;;;;;8.90;99.90;;;;;;5081027;27;19924;-60
2024/01/02 09:48:08;;;;;;;;;;;9.00;99.90;;;;;;5077598;27;19927;-60
2024/01/02 09:50:43;;;;;;;;;;;9.00;99.90;;;;;;5084470;28;20378;-59
2024/01/02 09:53:27;;;;;;;;;;;9.00;99.90;;;;;;5078841;28;20030;-60
2024/01/02 09:56:08;;;;;;;;;;;9.10;99.90;;;;;;5078884;27;20681;-60
2024/01/02 09:58:44;;;;;;;;;;;9.20;99.90;;;;;;5073257;27;19928;-60
2024/01/02 10:01:18;;;;;;;;;;;9.20;99.90;;;;;;5077370;28;19928;-60
2024/01/02 10:03:52;;;;;;;;;;;9.30;99.90;;;;;;5081693;28;19978;-58
2024/01/02 10:06:17;;;;;;;;;;;9.30;99.90;;;;;;5084379;28;20050;-60
2024/01/02 10:09:02;;;;;;;;;;;9.30;99.90;;;;;;5080517;28;19933;-59
2024/01/02 10:11:34;;;;;;;;;;;9.30;99.90;;;;;;5101309;28;20571;-62
2024/01/02 10:14:02;;;;;;;;;;;9.40;99.90;;;;;;5092237;28;20726;-63
2024/01/02 10:16:34;;;;;;;;;;;9.40;99.90;;;;;;5084357;28;20070;-63
2024/01/02 10:19:07;;;;;;;;;;;9.40;99.90;;;;;;5057264;28;20477;-63
2024/01/02 10:21:53;;;;;;;;;;;9.50;99.90;;;;;;5085878;28;19977;-63
2024/01/02 10:24:22;;;;;;;;;;;9.50;99.90;;;;;;5074514;28;19934;-63
2024/01/02 10:27:02;;;;;;;;;;;9.50;99.90;;;;;;5085069;28;19928;-62
2024/01/02 10:29:32;;;;;;;;;;;9.50;99.90;;;;;;5091370;28;20674;-64
2024/01/02 10:32:12;;;;;;;;;;;9.50;99.90;;;;;;5089862;28;19928;-62
2024/01/02 10:34:42;;;;;;;;;;;9.60;99.90;;;;;;5091901;28;19924;-64
2024/01/02 10:37:12;;;;;;;;;;;9.60;99.90;;;;;;5095005;27;19978;-63
2024/01/02 10:39:56;;;;;;;;;;;9.60;99.90;;;;;;5094887;28;19924;-64
2024/01/02 10:42:32;;;;;;;;;;;9.70;99.90;;;;;;5083303;27;19932;-64
2024/01/02 10:45:21;;;;;;;;;;;9.70;99.90;;;;;;5083566;27;20035;-64
2024/01/02 10:47:56;;;;;;;;;;;9.70;99.90;;;;;;5086911;28;19919;-63
2024/01/02 10:50:27;;;;;;;;;;;9.80;99.90;;;;;;5096483;28;19920;-66
2024/01/02 10:53:04;;;;;;;;;;;9.80;99.90;;;;;;5092748;27;20042;-63
2024/01/02 10:55:36;;;;;;;;;;;9.80;99.90;;;;;;5095977;28;19930;-63
2024/01/02 10:58:06;;;;;;;;;;;9.80;99.90;;;;;;5096541;27;19928;-64
2024/01/02 11:00:34;;;;;;;;;;;9.90;99.90;;;;;;5089137;28;19923;-64
2024/01/02 11:03:09;;;;;;;;;;;9.90;99.90;;;;;;5083387;28;19924;-65
2024/01/02 11:05:34;;;;;;;;;;;9.90;99.90;;;;;;5077604;28;19962;-64
2024/01/02 11:08:11;;;;;;;;;;;10.00;99.90;;;;;;5089088;28;20520;-64
2024/01/02 11:10:41;;;;;;;;;;;10.00;99.90;;;;;;5093564;28;20392;-65
2024/01/02 11:13:08;;;;;;;;;;;10.10;99.90;;;;;;5084617;28;20610;-65
2024/01/02 11:15:38;;;;;;;;;;;10.00;99.90;;;;;;5079954;28;20339;-64
2024/01/02 11:18:04;;;;;;;;;;;10.10;99.90;;;;;;5080248;27;19930;-64
2024/01/02 11:20:35;;;;;;;;;;;10.10;99.90;;;;;;5083233;27;19959;-64
2024/01/02 11:23:11;;;;;;;;;;;10.10;99.90;;;;;;5069380;27;19923;-64
2024/01/02 11:25:40;;;;;;;;;;;10.10;99.90;;;;;;5071036;28;20058;-64
2024/01/02 11:28:06;;;;;;;;;;;10.10;99.90;;;;;;5088609;27;19942;-64
2024/01/02 11:30:33;;;;;;;;;;;10.10;99.90;;;;;;5075224;28;19928;-64
2024/01/02 11:33:12;;;;;;;;;;;10.10;99.90;;;;;;5080008;27;19928;-64
2024/01/02 11:35:44;;;;;;;;;;;10.10;99.90;;;;;;5088564;27;19928;-64
2024/01/02 11:38:11;;;;;;;;;;;10.20;99.90;;;;;;5079851;28;19923;-64
2024/01/02 11:40:46;;;;;;;;;;;10.20;99.90;;;;;;5072019;28;19935;-64
2024/01/02 11:43:32;;;;;;;;;;;10.20;99.90;;;;;;5081492;28;19924;-64
2024/01/02 11:45:58;;;;;;;;;;;10.20;99.90;;;;;;5087229;28;19927;-64
2024/01/02 11:48:35;;;;;;;;;;;10.30;99.90;;;;;;5086745;28;20346;-64
2024/01/02 11:51:02;;;;;;;;;;;10.30;99.90;;;;;;5091859;28;20026;-64
2024/01/02 11:53:35;;;;;;;;;;;10.30;99.90;;;;;;5095466;28;20014;-64
2024/01/02 11:56:03;;;;;;;;;;;10.30;99.90;;;;;;5088190;28;20412;-64
2024/01/02 11:58:48;;;;;;;;;;;10.30;99.90;;;;;;5087709;28;19990;-64
2024/01/02 12:01:32;;;;;;;;;;;10.30;99.90;;;;;;5086964;28;20425;-64
2024/01/02 12:04:03;;;;;;;;;;;10.30;99.90;;;;;;5091818;27;19920;-64
2024/01/02 12:06:44;;;;;;;;;;;10.30;99.90;;;;;;5097182;28;19930;-65
2024/01/02 12:09:15;;;;;;;;;;;10.30;99.90;;;;;;5092676;28;20014;-64
2024/01/02 12:11:46;;;;;;;;;;;10.30;99.90;;;;;;5080775;28;20034;-64
2024/01/02 12:14:14;;;;;;;;;;;10.30;99.90;;;;;;5088446;28;20016;-65
2024/01/02 12:16:42;;;;;;;;;;;10.30;99.90;;;;;;5088239;28;20398;-65
2024/01/02 12:19:09;;;;;;;;;;;10.30;99.90;;;;;;5090234;27;19930;-64
2024/01/02 12:21:39;;;;;;;;;;;10.30;99.90;;;;;;5081181;27;19967;-64
2024/01/02 12:24:06;;;;;;;;;;;10.30;99.90;;;;;;5091481;27;19959;-64
2024/01/02 12:26:34;;;;;;;;;;;10.30;99.90;;;;;;5098322;27;19927;-64
2024/01/02 12:29:00;;;;;;;;;;;10.30;99.90;;;;;;5093970;28;20363;-64
2024/01/02 12:31:41;;;;;;;;;;;10.30;99.90;;;;;;5101205;27;19975;-64
2024/01/02 12:34:18;;;;;;;;;;;10.30;99.90;;;;;;5088618;28;19953;-64
2024/01/02 12:36:47;;;;;;;;;;;10.30;99.90;;;;;;5074309;27;19969;-64
2024/01/02 12:39:15;;;;;;;;;;;10.30;99.90;;;;;;5090364;27;19924;-65
2024/01/02 12:41:45;;;;;;;;;;;10.30;99.90;;;;;;5090216;28;19924;-64
2024/01/02 12:44:12;;;;;;;;;;;10.30;99.90;;;;;;5072548;28;20350;-64
2024/01/02 12:46:37;;;;;;;;;;;10.30;99.90;;;;;;5081720;28;19985;-64
2024/01/02 12:49:10;;;;;;;;;;;10.30;99.90;;;;;;5064415;28;19927;-64
2024/01/02 12:51:36;;;;;;;;;;;10.30;99.90;;;;;;5062014;28;20026;-65
2024/01/02 12:54:02;;;;;;;;;;;10.30;99.90;;;;;;5058250;28;19928;-64
2024/01/02 12:56:32;;;;;;;;;;;10.30;99.90;;;;;;5067268;28;20009;-64
2024/01/02 12:59:02;;;;;;;;;;;10.30;99.90;;;;;;5085291;28;19928;-64
2024/01/02 13:01:28;;;;;;;;;;;10.30;99.90;;;;;;5074877;28;20290;-64
2024/01/02 13:03:54;;;;;;;;;;;10.30;99.90;;;;;;5071693;28;19985;-64
2024/01/02 13:06:19;;;;;;;;;;;10.30;99.90;;;;;;5072855;28;19955;-64
2024/01/02 13:08:49;;;;;;;;;;;10.30;99.90;;;;;;5074395;28;19928;-64
2024/01/02 13:11:15;;;;;;;;;;;10.30;99.90;;;;;;5056532;28;20395;-64
2024/01/02 13:13:41;;;;;;;;;;;10.30;99.90;;;;;;5070067;28;19935;-64
2024/01/02 13:16:07;;;;;;;;;;;10.30;99.90;;;;;;5071162;28;19979;-64
2024/01/02 13:18:33;;;;;;;;;;;10.30;99.90;;;;;;5092989;28;19984;-64
2024/01/02 13:20:59;;;;;;;;;;;10.20;99.90;;;;;;5074561;28;19935;-64
2024/01/02 13:23:24;;;;;;;;;;;10.20;99.90;;;;;;5072329;28;19928;-64
2024/01/02 13:25:50;;;;;;;;;;;10.20;99.90;;;;;;5077270;28;19923;-64
2024/01/02 13:28:17;;;;;;;;;;;10.20;99.90;;;;;;5074373;28;19927;-64
2024/01/02 13:30:47;;;;;;;;;;;10.20;99.90;;;;;;5076086;28;19928;-64
2024/01/02 13:33:22;;;;;;;;;;;10.20;99.90;;;;;;5080288;28;19923;-64
2024/01/02 13:36:14;;;;;;;;;;;10.20;99.90;;;;;;5082018;28;20088;-64
2024/01/02 13:38:40;;;;;;;;;;;10.20;99.90;;;;;;5072966;28;19931;-64
2024/01/02 13:41:06;;;;;;;;;;;10.20;99.90;;;;;;5076671;28;20332;-64
2024/01/02 13:43:32;;;;;;;;;;;10.20;99.90;;;;;;5076837;28;20054;-64
2024/01/02 13:46:11;;;;;;;;;;;10.20;99.90;;;;;;5076166;28;19924;-63
2024/01/02 13:48:38;;;;;;;;;;;10.20;99.90;;;;;;5077419;28;19928;-64
2024/01/02 13:51:04;;;;;;;;;;;10.20;99.90;;;;;;5082183;28;19924;-64
2024/01/02 13:53:29;;;;;;;;;;;10.10;99.90;;;;;;5075659;28;20377;-64
2024/01/02 13:55:55;;;;;;;;;;;10.20;99.90;;;;;;5059431;28;19938;-64
2024/01/02 13:58:22;;;;;;;;;;;10.20;99.90;;;;;;5075713;28;19969;-64
2024/01/02 14:00:48;;;;;;;;;;;10.10;99.90;;;;;;5075202;28;19928;-64
2024/01/02 14:03:17;;;;;;;;;;;10.10;99.90;;;;;;5086068;28;19924;-64
2024/01/02 14:05:51;;;;;;;;;;;10.20;99.90;;;;;;5086425;28;20538;-64
2024/01/02 14:08:19;;;;;;;;;;;10.10;99.90;;;;;;5079724;28;19924;-64
2024/01/02 14:10:45;;;;;;;;;;;10.10;99.90;;;;;;5066967;28;19927;-64
2024/01/02 14:13:31;;;;;;;;;;;10.10;99.90;;;;;;5078167;28;19924;-64
2024/01/02 14:16:00;;;;;;;;;;;10.10;99.90;;;;;;5077578;28;19986;-64
2024/01/02 14:18:29;;;;;;;;;;;10.10;99.90;;;;;;5079746;28;19923;-64
2024/01/02 14:21:06;;;;;;;;;;;10.10;99.90;;;;;;5081336;28;19969;-64
2024/01/02 14:23:50;;;;;;;;;;;10.10;99.90;;;;;;5077782;28;19923;-64
2024/01/02 14:26:23;;;;;;;;;;;10.10;99.90;;;;;;5079122;28;19920;-64
2024/01/02 14:28:49;;;;;;;;;;;10.10;99.90;;;;;;5082360;28;19946;-64